createdAt,value
2019-02-16T00:01:56.629Z,-0.79
2019-02-16T00:04:29.928Z,-0.90
2019-02-16T00:07:03.208Z,-0.92
2019-02-16T00:09:36.508Z,-0.84
2019-02-16T00:12:10.811Z,-0.68
2019-02-16T00:14:44.186Z,-0.72
2019-02-16T00:17:18.303Z,-0.91
2019-02-16T00:19:51.596Z,-0.97
2019-02-16T00:22:24.887Z,-1.12
2019-02-16T00:24:58.002Z,-0.85
2019-02-16T00:27:32.274Z,-0.76
2019-02-16T00:30:06.821Z,-0.95
2019-02-16T00:32:40.215Z,-0.86
2019-02-16T00:35:13.538Z,-0.85
2019-02-16T00:37:46.838Z,-0.90
2019-02-16T00:40:20.126Z,-0.90
2019-02-16T00:42:53.407Z,-1.00
2019-02-16T00:45:26.707Z,-0.98
2019-02-16T00:47:59.991Z,-1.03
2019-02-16T00:50:33.300Z,-1.05
2019-02-16T00:53:06.576Z,-1.02
2019-02-16T00:55:39.875Z,-1.09
2019-02-16T00:58:13.155Z,-1.15
2019-02-16T01:00:46.469Z,-1.21
2019-02-16T01:03:19.749Z,-1.34
2019-02-16T01:05:53.053Z,-1.48
2019-02-16T01:08:26.357Z,-1.21
2019-02-16T01:10:59.635Z,-1.17
2019-02-16T01:13:32.941Z,-1.26
2019-02-16T01:16:06.226Z,-1.29
2019-02-16T01:18:39.533Z,-1.31
2019-02-16T01:21:12.810Z,-1.35
2019-02-16T01:23:46.108Z,-1.38
2019-02-16T01:26:19.386Z,-1.43
2019-02-16T01:28:52.682Z,-1.38
2019-02-16T01:31:25.983Z,-1.39
2019-02-16T01:33:59.303Z,-1.46
2019-02-16T01:36:32.585Z,-1.35
2019-02-16T01:39:06.469Z,-1.32
2019-02-16T01:41:39.748Z,-1.33
2019-02-16T01:44:13.430Z,-1.22
2019-02-16T01:46:46.707Z,-1.12
2019-02-16T01:49:19.980Z,-1.29
2019-02-16T01:51:53.272Z,-1.41
2019-02-16T01:54:26.573Z,-1.50
2019-02-16T01:56:59.845Z,-1.57
2019-02-16T01:59:33.024Z,-1.60
2019-02-16T02:02:06.320Z,-1.61
2019-02-16T02:04:39.620Z,-1.48
2019-02-16T02:07:12.893Z,-1.50
2019-02-16T02:09:46.189Z,-1.51
2019-02-16T02:12:19.601Z,-1.56
2019-02-16T02:14:52.910Z,-1.54
2019-02-16T02:17:26.212Z,-1.60
2019-02-16T02:20:00.626Z,-1.67
2019-02-16T02:22:33.904Z,-1.79
2019-02-16T02:25:09.749Z,-1.85
2019-02-16T02:27:43.035Z,-1.80
2019-02-16T02:30:17.876Z,-1.61
2019-02-16T02:32:51.164Z,-1.71
2019-02-16T02:35:24.459Z,-1.72
2019-02-16T02:37:57.761Z,-1.77
2019-02-16T02:40:31.076Z,-1.75
2019-02-16T02:43:04.373Z,-1.74
2019-02-16T02:45:37.678Z,-1.78
2019-02-16T02:48:10.956Z,-1.88
2019-02-16T02:50:45.137Z,-1.94
2019-02-16T02:53:18.420Z,-1.70
2019-02-16T02:55:51.715Z,-1.83
2019-02-16T02:58:25.009Z,-1.93
2019-02-16T03:00:58.306Z,-1.98
2019-02-16T03:03:31.592Z,-1.83
2019-02-16T03:06:04.885Z,-1.85
2019-02-16T03:08:38.150Z,-1.98
2019-02-16T03:11:11.447Z,-2.03
2019-02-16T03:13:44.742Z,-2.15
2019-02-16T03:16:18.053Z,-2.12
2019-02-16T03:18:52.308Z,-2.18
2019-02-16T03:21:25.602Z,-2.19
2019-02-16T03:23:58.889Z,-2.19
2019-02-16T03:26:44.370Z,-2.29
2019-02-16T03:29:23.611Z,-2.39
2019-02-16T03:32:14.920Z,-2.40
2019-02-16T03:34:57.403Z,-2.34
2019-02-16T03:37:50.389Z,-2.24
2019-02-16T03:40:23.663Z,-2.30
2019-02-16T03:42:56.964Z,-2.09
2019-02-16T03:45:30.058Z,-2.03
2019-02-16T03:48:03.827Z,-2.20
2019-02-16T03:50:37.112Z,-2.17
2019-02-16T03:53:10.417Z,-2.17
2019-02-16T03:55:43.708Z,-2.21
2019-02-16T03:58:17.028Z,-2.19
2019-02-16T04:00:50.299Z,-2.24
2019-02-16T04:03:24.500Z,-2.34
2019-02-16T04:05:57.784Z,-2.42
2019-02-16T04:08:31.066Z,-2.42
2019-02-16T04:11:04.347Z,-2.46
2019-02-16T04:13:37.636Z,-2.45
2019-02-16T04:16:10.930Z,-2.54
2019-02-16T04:18:44.232Z,-2.34
2019-02-16T04:21:17.516Z,-1.95
2019-02-16T04:23:50.824Z,-1.90
2019-02-16T04:26:24.108Z,-2.03
2019-02-16T04:28:57.227Z,-1.88
2019-02-16T04:31:30.511Z,-1.76
2019-02-16T04:34:03.825Z,-1.76
2019-02-16T04:36:37.096Z,-1.86
2019-02-16T04:39:10.410Z,-2.08
2019-02-16T04:41:43.698Z,-2.18
2019-02-16T04:44:16.992Z,-2.27
2019-02-16T04:46:50.338Z,-2.26
2019-02-16T04:49:23.640Z,-2.28
2019-02-16T04:51:56.732Z,-2.26
2019-02-16T04:54:30.048Z,-2.29
2019-02-16T04:57:03.846Z,-2.31
2019-02-16T04:59:37.154Z,-2.28
2019-02-16T05:02:10.517Z,-2.37
2019-02-16T05:04:43.799Z,-2.47
2019-02-16T05:07:18.428Z,-2.45
2019-02-16T05:09:51.817Z,-2.53
2019-02-16T05:12:25.108Z,-2.47
2019-02-16T05:14:58.396Z,-2.35
2019-02-16T05:17:31.693Z,-2.40
2019-02-16T05:20:06.852Z,-2.55
2019-02-16T05:22:44.696Z,-2.61
2019-02-16T05:25:15.168Z,-2.43
2019-02-16T05:27:48.443Z,-2.47
2019-02-16T05:30:21.758Z,-2.69
2019-02-16T05:32:55.093Z,-2.76
2019-02-16T05:35:28.362Z,-2.53
2019-02-16T05:38:01.669Z,-2.42
2019-02-16T05:40:34.945Z,-2.40
2019-02-16T05:43:08.267Z,-2.40
2019-02-16T05:45:41.543Z,-2.49
2019-02-16T05:48:14.847Z,-2.61
2019-02-16T05:50:48.192Z,-2.73
2019-02-16T05:53:21.502Z,-2.77
2019-02-16T05:55:54.773Z,-2.58
2019-02-16T05:58:28.068Z,-2.46
2019-02-16T06:01:01.340Z,-2.46
2019-02-16T06:03:35.142Z,-2.44
2019-02-16T06:06:08.419Z,-2.42
2019-02-16T06:08:41.723Z,-2.48
2019-02-16T06:11:15.011Z,-2.60
2019-02-16T06:13:48.306Z,-2.69
2019-02-16T06:16:21.592Z,-2.66
2019-02-16T06:18:54.921Z,-2.69
2019-02-16T06:21:28.190Z,-2.87
2019-02-16T06:24:02.592Z,-2.86
2019-02-16T06:26:35.866Z,-2.93
2019-02-16T06:29:09.190Z,-2.72
2019-02-16T06:31:42.468Z,-2.65
2019-02-16T06:34:16.873Z,-2.68
2019-02-16T06:36:50.157Z,-2.68
2019-02-16T06:39:23.470Z,-2.74
2019-02-16T06:41:56.755Z,-2.61
2019-02-16T06:44:30.061Z,-2.50
2019-02-16T06:47:03.343Z,-2.66
2019-02-16T06:49:36.638Z,-2.69
2019-02-16T06:52:09.931Z,-2.50
2019-02-16T06:54:43.202Z,-2.51
2019-02-16T06:57:23.774Z,-2.58
2019-02-16T06:59:57.137Z,-2.56
2019-02-16T07:02:30.433Z,-2.65
2019-02-16T07:05:03.910Z,-2.55
2019-02-16T07:07:37.169Z,-2.48
2019-02-16T07:10:10.481Z,-2.38
2019-02-16T07:12:43.767Z,-2.32
2019-02-16T07:15:17.090Z,-2.26
2019-02-16T07:18:01.255Z,-2.17
2019-02-16T07:20:35.570Z,-2.12
2019-02-16T07:23:08.867Z,-2.06
2019-02-16T07:25:42.186Z,-2.02
2019-02-16T07:28:15.455Z,-1.90
2019-02-16T07:30:48.767Z,-1.77
2019-02-16T07:33:22.067Z,-1.70
2019-02-16T07:35:55.469Z,-1.53
2019-02-16T07:38:28.798Z,-1.50
2019-02-16T07:41:03.362Z,-1.48
2019-02-16T07:43:51.683Z,-1.36
2019-02-16T07:46:32.363Z,-1.35
2019-02-16T07:49:09.973Z,-1.24
2019-02-16T07:51:47.589Z,-1.31
2019-02-16T07:54:34.439Z,-1.34
2019-02-16T07:57:12.312Z,-1.22
2019-02-16T07:59:53.251Z,-0.96
2019-02-16T08:02:28.175Z,-0.81
2019-02-16T08:05:03.168Z,-0.66
2019-02-16T08:07:42.739Z,-0.45
2019-02-16T08:10:17.466Z,-0.32
2019-02-16T08:13:01.069Z,-0.22
2019-02-16T08:15:51.279Z,-0.05
2019-02-16T08:18:26.197Z,0.11
2019-02-16T08:21:19.159Z,0.23
2019-02-16T08:24:10.151Z,0.46
2019-02-16T08:26:45.149Z,0.68
2019-02-16T08:29:23.046Z,0.79
2019-02-16T08:31:58.866Z,0.95
2019-02-16T08:34:33.799Z,1.11
2019-02-16T08:37:08.743Z,1.25
2019-02-16T08:39:43.663Z,1.41
2019-02-16T08:42:22.449Z,1.49
2019-02-16T08:45:06.286Z,1.54
2019-02-16T08:47:46.678Z,2.14
2019-02-16T08:50:29.513Z,2.25
2019-02-16T08:53:04.244Z,2.41
2019-02-16T08:55:39.178Z,2.50
2019-02-16T08:58:17.244Z,2.64
2019-02-16T09:00:54.962Z,2.87
2019-02-16T09:03:32.662Z,3.15
2019-02-16T09:06:12.547Z,3.29
2019-02-16T09:08:50.212Z,3.35
2019-02-16T09:11:28.086Z,3.47
2019-02-16T09:14:19.114Z,3.56
2019-02-16T09:17:02.749Z,3.70
2019-02-16T09:19:38.383Z,3.72
2019-02-16T09:22:17.711Z,3.87
2019-02-16T09:25:10.815Z,4.01
2019-02-16T09:27:45.741Z,4.32
2019-02-16T09:30:24.152Z,4.46
2019-02-16T09:32:59.064Z,4.95
2019-02-16T09:35:37.023Z,5.25
2019-02-16T09:38:21.111Z,5.21
2019-02-16T09:40:58.780Z,5.47
2019-02-16T09:43:33.700Z,5.61
2019-02-16T09:46:24.769Z,5.83
2019-02-16T09:49:17.724Z,5.94
2019-02-16T09:52:09.206Z,5.88
2019-02-16T09:54:46.978Z,5.99
2019-02-16T09:57:21.914Z,6.27
2019-02-16T10:00:03.027Z,6.31
2019-02-16T10:02:39.335Z,6.24
2019-02-16T10:05:31.483Z,6.26
2019-02-16T10:08:15.482Z,6.62
2019-02-16T10:10:53.114Z,6.85
2019-02-16T10:13:32.358Z,7.04
2019-02-16T10:16:13.128Z,7.00
2019-02-16T10:19:00.029Z,7.18
2019-02-16T10:21:43.665Z,7.37
2019-02-16T10:24:35.018Z,7.23
2019-02-16T10:27:13.356Z,7.47
2019-02-16T10:29:51.247Z,7.59
2019-02-16T10:32:26.235Z,7.84
2019-02-16T10:35:03.817Z,7.70
2019-02-16T10:37:38.796Z,7.82
2019-02-16T10:40:25.817Z,8.01
2019-02-16T10:43:06.799Z,7.98
2019-02-16T10:45:41.717Z,8.04
2019-02-16T10:48:16.679Z,8.36
2019-02-16T10:50:57.545Z,8.66
2019-02-16T10:53:35.351Z,8.84
2019-02-16T10:56:12.854Z,9.10
2019-02-16T10:58:53.710Z,9.36
2019-02-16T11:01:44.660Z,9.67
2019-02-16T11:04:19.593Z,9.82
2019-02-16T11:06:55.603Z,10.06
2019-02-16T11:09:42.365Z,10.38
2019-02-16T11:12:17.367Z,11.44
2019-02-16T11:14:55.594Z,12.88
2019-02-16T11:17:42.723Z,12.69
2019-02-16T11:20:28.229Z,13.41
2019-02-16T11:23:18.142Z,13.11
2019-02-16T11:26:09.909Z,13.18
2019-02-16T11:28:48.004Z,13.31
2019-02-16T11:31:28.946Z,14.44
2019-02-16T11:34:18.855Z,13.56
2019-02-16T11:36:56.245Z,14.36
2019-02-16T11:39:49.669Z,14.73
2019-02-16T11:42:24.602Z,14.58
2019-02-16T11:45:02.299Z,15.20
2019-02-16T11:47:42.911Z,14.57
2019-02-16T11:50:17.927Z,16.11
2019-02-16T11:53:09.006Z,14.81
2019-02-16T11:55:58.817Z,15.89
2019-02-16T11:58:50.215Z,15.33
2019-02-16T12:01:25.181Z,15.35
2019-02-16T12:04:03.096Z,15.26
2019-02-16T12:06:41.198Z,15.60
2019-02-16T12:09:19.053Z,14.69
2019-02-16T12:11:54.014Z,15.30
2019-02-16T12:14:34.472Z,16.10
2019-02-16T12:17:09.430Z,15.90
2019-02-16T12:19:44.361Z,16.96
2019-02-16T12:22:25.251Z,16.78
2019-02-16T12:25:06.505Z,15.51
2019-02-16T12:27:41.607Z,16.99
2019-02-16T12:30:32.492Z,16.43
2019-02-16T12:33:19.704Z,15.84
2019-02-16T12:36:10.750Z,17.10
2019-02-16T12:38:48.783Z,16.83
2019-02-16T12:41:26.331Z,16.63
2019-02-16T12:44:13.187Z,16.25
2019-02-16T12:47:00.106Z,16.45
2019-02-16T12:49:50.029Z,16.98
2019-02-16T12:52:40.985Z,16.24
2019-02-16T12:55:31.709Z,17.79
2019-02-16T12:58:09.131Z,16.85
2019-02-16T13:00:49.814Z,16.40
2019-02-16T13:03:30.768Z,17.53
2019-02-16T13:06:20.978Z,17.97
2019-02-16T13:09:13.927Z,17.09
2019-02-16T13:11:48.895Z,17.45
2019-02-16T13:14:27.162Z,17.02
2019-02-16T13:17:05.205Z,17.82
2019-02-16T13:19:40.136Z,18.13
2019-02-16T13:22:15.078Z,18.52
2019-02-16T13:25:08.133Z,18.27
2019-02-16T13:27:50.636Z,17.46
2019-02-16T13:30:43.788Z,17.31
2019-02-16T13:33:33.818Z,18.01
2019-02-16T13:36:08.886Z,17.30
2019-02-16T13:38:43.860Z,18.02
2019-02-16T13:41:24.327Z,18.23
2019-02-16T13:44:11.489Z,18.51
2019-02-16T13:46:58.315Z,19.31
2019-02-16T13:49:33.258Z,19.10
2019-02-16T13:52:18.593Z,18.59
2019-02-16T13:54:59.299Z,18.24
2019-02-16T13:57:34.218Z,18.14
2019-02-16T14:00:24.790Z,18.90
2019-02-16T14:03:05.569Z,18.09
2019-02-16T14:05:40.562Z,19.11
2019-02-16T14:08:15.514Z,19.77
2019-02-16T14:10:50.479Z,18.17
2019-02-16T14:13:43.463Z,18.59
2019-02-16T14:16:18.409Z,18.33
2019-02-16T14:18:51.693Z,19.58
2019-02-16T14:21:26.181Z,18.35
2019-02-16T14:23:59.412Z,19.84
2019-02-16T14:26:32.709Z,18.10
2019-02-16T14:29:06.579Z,17.35
2019-02-16T14:31:39.893Z,17.57
2019-02-16T14:34:13.207Z,17.63
2019-02-16T14:36:47.325Z,18.62
2019-02-16T14:39:22.259Z,18.89
2019-02-16T14:41:55.624Z,18.26
2019-02-16T14:44:28.919Z,17.64
2019-02-16T14:47:02.497Z,18.09
2019-02-16T14:49:35.808Z,18.37
2019-02-16T14:52:09.156Z,17.93
2019-02-16T14:54:42.467Z,18.04
2019-02-16T14:57:15.779Z,17.33
2019-02-16T14:59:49.102Z,18.27
2019-02-16T15:02:22.422Z,18.02
2019-02-16T15:04:57.075Z,18.23
2019-02-16T15:07:30.387Z,17.43
2019-02-16T15:10:05.415Z,18.63
2019-02-16T15:12:38.773Z,19.04
2019-02-16T15:15:12.141Z,18.32
2019-02-16T15:17:45.431Z,17.86
2019-02-16T15:20:18.721Z,17.36
2019-02-16T15:22:52.633Z,18.25
2019-02-16T15:25:25.905Z,18.12
2019-02-16T15:27:59.213Z,17.64
2019-02-16T15:30:32.567Z,18.01
2019-02-16T15:33:05.852Z,16.58
2019-02-16T15:35:39.145Z,15.79
2019-02-16T15:38:12.453Z,14.79
2019-02-16T15:40:45.742Z,14.50
2019-02-16T15:43:19.047Z,14.34
2019-02-16T15:45:52.335Z,14.16
2019-02-16T15:48:25.715Z,14.09
2019-02-16T15:50:59.018Z,13.95
2019-02-16T15:53:32.308Z,13.78
2019-02-16T15:56:10.427Z,13.53
2019-02-16T15:58:40.647Z,13.33
2019-02-16T16:01:13.967Z,13.33
2019-02-16T16:03:47.302Z,13.31
2019-02-16T16:06:20.564Z,13.11
2019-02-16T16:09:01.201Z,12.88
2019-02-16T16:11:38.536Z,12.56
2019-02-16T16:14:19.276Z,12.15
2019-02-16T16:17:10.568Z,11.67
2019-02-16T16:19:47.918Z,11.29
2019-02-16T16:22:34.847Z,11.16
2019-02-16T16:25:18.656Z,10.93
2019-02-16T16:27:59.585Z,10.59
2019-02-16T16:30:37.228Z,10.28
2019-02-16T16:33:30.290Z,10.19
2019-02-16T16:36:13.995Z,9.86
2019-02-16T16:39:01.076Z,9.62
2019-02-16T16:41:36.019Z,9.20
2019-02-16T16:44:27.177Z,9.47
2019-02-16T16:47:02.127Z,9.29
2019-02-16T16:49:37.078Z,9.23
2019-02-16T16:52:12.009Z,9.13
2019-02-16T16:54:55.579Z,9.15
2019-02-16T16:57:30.473Z,9.00
2019-02-16T17:00:08.335Z,8.39
2019-02-16T17:02:58.189Z,8.48
2019-02-16T17:05:52.205Z,8.53
2019-02-16T17:08:44.666Z,8.45
2019-02-16T17:11:35.695Z,8.29
2019-02-16T17:14:22.592Z,8.09
2019-02-16T17:17:12.502Z,7.90
2019-02-16T17:19:47.435Z,7.70
2019-02-16T17:22:25.511Z,7.69
2019-02-16T17:25:00.499Z,7.50
2019-02-16T17:27:41.467Z,7.42
2019-02-16T17:30:22.164Z,7.21
2019-02-16T17:33:02.625Z,7.05
2019-02-16T17:35:43.713Z,6.95
2019-02-16T17:38:21.451Z,6.78
2019-02-16T17:40:56.402Z,6.78
2019-02-16T17:43:36.781Z,6.85
2019-02-16T17:46:14.777Z,6.67
2019-02-16T17:48:49.756Z,6.67
2019-02-16T17:51:24.718Z,6.62
2019-02-16T17:54:17.474Z,6.65
2019-02-16T17:57:01.593Z,6.61
2019-02-16T17:59:36.568Z,6.51
2019-02-16T18:02:14.118Z,6.54
2019-02-16T18:05:00.805Z,6.40
2019-02-16T18:07:35.783Z,6.29
2019-02-16T18:10:19.664Z,6.26
2019-02-16T18:12:54.609Z,6.00
2019-02-16T18:15:29.563Z,5.98
2019-02-16T18:18:07.403Z,5.95
2019-02-16T18:20:42.323Z,5.75
2019-02-16T18:23:17.330Z,5.67
2019-02-16T18:25:58.014Z,5.61
2019-02-16T18:28:32.982Z,5.50
2019-02-16T18:31:24.612Z,5.48
2019-02-16T18:34:15.461Z,5.33
2019-02-16T18:36:50.418Z,5.20
2019-02-16T18:39:25.407Z,5.25
2019-02-16T18:42:03.097Z,5.29
2019-02-16T18:44:40.962Z,5.18
2019-02-16T18:47:15.918Z,5.31
2019-02-16T18:49:53.442Z,5.21
2019-02-16T18:52:31.427Z,5.07
2019-02-16T18:55:23.063Z,4.95
2019-02-16T18:58:14.239Z,4.89
2019-02-16T19:00:49.231Z,4.81
2019-02-16T19:03:30.005Z,4.69
2019-02-16T19:06:04.978Z,4.43
2019-02-16T19:08:39.920Z,4.49
2019-02-16T19:11:14.903Z,4.64
2019-02-16T19:13:55.672Z,4.57
2019-02-16T19:16:39.409Z,4.45
2019-02-16T19:19:17.024Z,4.24
2019-02-16T19:22:07.960Z,4.23
2019-02-16T19:24:48.858Z,4.27
2019-02-16T19:27:36.040Z,4.42
2019-02-16T19:30:23.577Z,4.26
2019-02-16T19:33:04.517Z,4.18
2019-02-16T19:35:39.446Z,4.17
2019-02-16T19:38:17.126Z,4.23
2019-02-16T19:41:01.228Z,4.48
2019-02-16T19:43:42.179Z,4.74
2019-02-16T19:46:23.229Z,4.64
2019-02-16T19:49:01.049Z,4.34
2019-02-16T19:51:38.483Z,4.24
2019-02-16T19:54:19.211Z,4.08
2019-02-16T19:56:56.864Z,3.91
2019-02-16T19:59:31.922Z,3.73
2019-02-16T20:02:15.851Z,3.63
2019-02-16T20:04:53.673Z,3.56
2019-02-16T20:07:40.491Z,3.48
2019-02-16T20:10:21.015Z,3.38
2019-02-16T20:13:12.459Z,3.35
2019-02-16T20:15:47.384Z,3.19
2019-02-16T20:18:24.924Z,3.17
2019-02-16T20:21:16.285Z,3.22
2019-02-16T20:24:03.309Z,3.23
2019-02-16T20:26:38.244Z,3.07
2019-02-16T20:29:15.906Z,3.05
2019-02-16T20:32:05.838Z,3.05
2019-02-16T20:34:49.961Z,2.95
2019-02-16T20:37:31.060Z,2.85
2019-02-16T20:40:22.718Z,2.82
2019-02-16T20:43:09.714Z,2.74
2019-02-16T20:45:50.311Z,2.59
2019-02-16T20:48:25.237Z,2.48
2019-02-16T20:51:00.227Z,2.56
2019-02-16T20:53:44.004Z,2.63
2019-02-16T20:56:18.948Z,2.45
2019-02-16T20:58:53.885Z,2.42
2019-02-16T21:01:31.525Z,2.46
2019-02-16T21:04:09.113Z,2.56
2019-02-16T21:06:49.790Z,2.55
2019-02-16T21:09:34.006Z,2.54
2019-02-16T21:12:20.688Z,2.40
2019-02-16T21:14:55.616Z,2.33
2019-02-16T21:17:42.472Z,2.31
2019-02-16T21:20:23.550Z,2.23
2019-02-16T21:22:58.605Z,2.38
2019-02-16T21:25:33.511Z,2.55
2019-02-16T21:28:09.144Z,2.36
2019-02-16T21:30:44.139Z,2.25
2019-02-16T21:33:25.210Z,2.13
2019-02-16T21:36:02.698Z,1.98
2019-02-16T21:38:51.329Z,1.89
2019-02-16T21:41:35.378Z,1.80
2019-02-16T21:44:28.233Z,1.66
2019-02-16T21:47:03.173Z,1.81
2019-02-16T21:49:39.520Z,1.80
2019-02-16T21:52:30.572Z,1.69
2019-02-16T21:55:06.744Z,1.59
2019-02-16T21:57:50.732Z,1.47
2019-02-16T22:00:25.665Z,1.47
2019-02-16T22:03:06.749Z,1.30
2019-02-16T22:05:50.227Z,1.25
2019-02-16T22:08:27.835Z,1.16
2019-02-16T22:11:14.745Z,1.23
2019-02-16T22:13:49.178Z,1.39
2019-02-16T22:16:22.466Z,1.38
2019-02-16T22:18:55.862Z,1.33
2019-02-16T22:21:29.234Z,1.20
2019-02-16T22:24:02.548Z,1.09
2019-02-16T22:26:35.815Z,0.98
2019-02-16T22:29:09.167Z,1.00
2019-02-16T22:31:42.467Z,1.08
2019-02-16T22:34:17.434Z,1.03
2019-02-16T22:36:50.775Z,0.87
2019-02-16T22:39:24.072Z,0.78
2019-02-16T22:41:57.358Z,0.80
2019-02-16T22:44:30.678Z,0.88
2019-02-16T22:47:04.045Z,0.96
2019-02-16T22:49:38.788Z,0.93
2019-02-16T22:52:12.075Z,0.85
2019-02-16T22:54:45.399Z,0.78
2019-02-16T22:57:18.701Z,0.75
2019-02-16T22:59:52.016Z,0.63
2019-02-16T23:02:25.381Z,0.54
2019-02-16T23:04:59.217Z,0.50
2019-02-16T23:07:32.532Z,0.49
2019-02-16T23:10:09.163Z,0.49
2019-02-16T23:12:42.467Z,0.45
2019-02-16T23:15:15.838Z,0.32
2019-02-16T23:17:49.288Z,0.30
2019-02-16T23:20:22.614Z,0.32
2019-02-16T23:22:55.915Z,0.24
2019-02-16T23:25:29.928Z,0.27
2019-02-16T23:28:03.174Z,0.20
2019-02-16T23:30:37.753Z,0.15
2019-02-16T23:33:11.069Z,0.10
2019-02-16T23:35:44.348Z,0.06
2019-02-16T23:38:17.658Z,-0.03
2019-02-16T23:40:50.959Z,-0.12
2019-02-16T23:43:24.289Z,-0.07
2019-02-16T23:45:57.573Z,-0.01
2019-02-16T23:48:30.870Z,-0.09
2019-02-16T23:51:05.402Z,-0.12
2019-02-16T23:53:38.684Z,-0.05
2019-02-16T23:56:12.013Z,-0.06
2019-02-16T23:58:49.197Z,-0.16
